Batchelor, Australia
Current Conditions -  °F | °C
As of 5:30 AM on Friday 19 Dec 2014 (Local Time) from YPDN Reporting Station
Broken Clouds Broken Clouds  
Wind Chill: 82°   Ceiling: 30000
Heat Index: 92°   Visibility: 6mi
Dew Point: 79°   Wind: 2mph
Humidity: 89%   Direction: 320°NW
Pressure: 29.8"   Gusts: NA
Location:  13.05°S, 131.03°E
Report Text: YPDN 182030Z 32002KT 9999 FEW019 BKN300 28/26 Q1009
Loading
Personal Weather Stations






























Interactive Weather Map New forecast layout! Learn more

10-Day Weather Forecast

Advertisements
Track Severe Weather on mobile